Time;durP1;ratioP1;P1;durP2;ratioP2;P2;SDS_P1;SDS_P2;PMS_P1;PMS_P2;Temp;Humidity;BMP_temperature;BMP_pressure;BME280_temperature;BME280_humidity;BME280_pressure;Samples;Min_cycle;Max_cycle;Signal;HPM_P1;HPM_P2
2023/11/01 06:38:28;;;;;;;7.88;1.63;;;;;;;7.96;94.44;95818.75;2083376;28;21544;-61
2023/11/01 06:39:30;;;;;;;9.65;1.60;;;;;;;8.09;93.77;95816.44;2081685;28;20193;-62
2023/11/01 06:40:31;;;;;;;4.45;1.50;;;;;;;8.25;92.72;95822.59;2079754;28;20201;-61
2023/11/01 06:51:01;;;;;;;10.00;1.48;;;;;;;7.91;93.37;95837.19;2083817;28;20585;-61
2023/11/01 06:56:17;;;;;;;3.58;2.20;;;;;;;7.60;94.60;95824.78;2083218;28;20569;-61
2023/11/01 07:00:52;;;;;;;4.97;1.50;;;;;;;7.57;95.31;95833.56;2084942;28;20586;-62
2023/11/01 07:04:56;;;;;;;7.25;1.63;;;;;;;7.85;93.92;95814.91;2099987;27;20579;-62
2023/11/01 07:05:57;;;;;;;4.25;1.60;;;;;;;8.43;92.10;95827.78;2096711;28;20200;-62
2023/11/01 07:06:59;;;;;;;3.85;1.77;;;;;;;8.90;89.60;95832.44;2098642;28;20241;-62
2023/11/01 07:08:01;;;;;;;4.80;1.40;;;;;;;9.14;88.15;95819.91;2071985;28;20225;-62
2023/11/01 07:09:03;;;;;;;5.30;1.77;;;;;;;9.46;86.39;95822.56;2072952;28;20599;-62
2023/11/01 07:10:07;;;;;;;3.28;1.40;;;;;;;9.69;85.05;95817.88;2069086;28;20198;-62
2023/11/01 07:11:09;;;;;;;5.72;1.50;;;;;;;9.90;84.18;95823.72;2069917;28;20281;-62
2023/11/01 07:12:11;;;;;;;3.17;1.20;;;;;;;10.02;83.18;95824.78;2070931;28;20258;-62
2023/11/01 07:13:12;;;;;;;5.28;1.50;;;;;;;10.03;83.29;95823.88;2078485;28;20201;-62
2023/11/01 07:14:14;;;;;;;14.68;1.70;;;;;;;10.02;83.20;95823.94;2078764;28;20295;-62
2023/11/01 07:15:15;;;;;;;7.07;1.00;;;;;;;10.09;82.93;95820.06;2078150;28;20224;-62
2023/11/01 07:16:17;;;;;;;2.60;1.13;;;;;;;10.08;82.63;95818.38;2079859;28;20232;-62
2023/11/01 07:17:18;;;;;;;4.18;1.17;;;;;;;9.96;83.09;95823.34;2075428;28;20560;-62
2023/11/01 07:18:19;;;;;;;2.63;1.30;;;;;;;9.91;83.44;95819.31;2068362;28;20631;-62
2023/11/01 07:19:21;;;;;;;8.30;1.48;;;;;;;9.89;83.53;95808.13;2070065;28;20256;-62
2023/11/01 07:20:23;;;;;;;5.95;1.30;;;;;;;10.01;83.13;95815.28;2077163;28;20539;-62
2023/11/01 07:21:24;;;;;;;5.05;1.38;;;;;;;10.16;82.84;95817.94;2075345;28;20247;-62
2023/11/01 07:22:27;;;;;;;5.75;1.20;;;;;;;10.10;82.19;95817.34;2073026;28;20746;-63
2023/11/01 07:23:29;;;;;;;10.32;1.13;;;;;;;10.13;81.96;95826.78;2076888;28;20289;-62
2023/11/01 07:24:31;;;;;;;7.40;1.45;;;;;;;10.12;81.72;95814.69;2076536;28;20252;-62
2023/11/01 07:25:32;;;;;;;4.57;1.33;;;;;;;9.84;83.19;95815.34;2077398;28;20288;-62
2023/11/01 07:26:34;;;;;;;4.43;1.30;;;;;;;10.02;82.55;95819.56;2081878;28;20201;-62
2023/11/01 07:27:36;;;;;;;4.32;1.13;;;;;;;10.45;80.83;95811.97;2076405;28;20705;-62
2023/11/01 07:28:37;;;;;;;6.45;1.38;;;;;;;10.86;80.05;95807.84;2080203;28;20641;-62
2023/11/01 07:29:39;;;;;;;3.85;1.20;;;;;;;11.48;78.45;95811.16;2078516;28;20215;-62
2023/11/01 07:30:42;;;;;;;7.68;1.40;;;;;;;11.05;77.83;95807.59;2077379;28;20556;-62
2023/11/01 07:31:43;;;;;;;5.30;1.27;;;;;;;10.84;78.59;95814.94;2077923;28;20189;-62
2023/11/01 07:32:45;;;;;;;4.30;1.17;;;;;;;10.77;79.67;95808.41;2077363;28;20228;-62
2023/11/01 07:33:46;;;;;;;2.05;0.95;;;;;;;10.94;79.62;95813.47;2081580;28;20276;-62
2023/11/01 07:34:48;;;;;;;5.03;1.10;;;;;;;11.13;79.03;95807.13;2082181;28;20185;-62
2023/11/01 07:35:49;;;;;;;7.90;1.38;;;;;;;11.33;77.66;95807.72;2081062;28;20288;-62
2023/11/01 07:36:51;;;;;;;4.90;1.63;;;;;;;11.14;78.06;95808.81;2080775;28;20663;-62
2023/11/01 07:37:52;;;;;;;6.13;1.17;;;;;;;11.22;77.97;95813.59;2080572;28;20764;-62
2023/11/01 07:38:54;;;;;;;3.08;1.23;;;;;;;11.09;77.71;95805.66;2081254;28;20196;-63
2023/11/01 07:39:55;;;;;;;3.92;1.00;;;;;;;11.14;78.07;95794.94;2078883;28;20231;-62
2023/11/01 07:40:57;;;;;;;2.67;0.90;;;;;;;11.46;77.30;95807.81;2077847;28;20246;-62
2023/11/01 07:41:58;;;;;;;4.57;1.10;;;;;;;11.82;75.41;95802.06;2080410;28;20831;-62
2023/11/01 07:43:00;;;;;;;4.22;1.10;;;;;;;11.89;75.36;95794.66;2077453;28;20221;-62
2023/11/01 07:44:01;;;;;;;2.80;1.10;;;;;;;12.13;74.39;95794.91;2077493;28;20279;-62
2023/11/01 07:45:04;;;;;;;3.78;1.10;;;;;;;12.40;73.95;95800.13;2076963;28;20400;-63
2023/11/01 07:46:08;;;;;;;3.45;1.00;;;;;;;12.38;72.89;95795.94;2076822;28;20628;-62
2023/11/01 07:47:09;;;;;;;5.82;1.40;;;;;;;12.03;74.62;95789.41;2080165;28;20229;-63
2023/11/01 07:48:11;;;;;;;3.35;0.90;;;;;;;12.63;72.89;95803.00;2080232;28;20752;-63
2023/11/01 07:49:12;;;;;;;6.18;1.50;;;;;;;13.11;71.49;95791.94;2081366;28;20221;-63
2023/11/01 07:50:14;;;;;;;5.38;1.30;;;;;;;13.47;69.81;95798.25;2081980;28;20265;-63
2023/11/01 07:51:16;;;;;;;1.63;0.75;;;;;;;13.46;69.79;95809.69;2081042;28;20641;-63
2023/11/01 07:52:17;;;;;;;3.97;1.42;;;;;;;14.13;67.67;95795.34;2080151;28;20201;-63
2023/11/01 07:53:19;;;;;;;4.75;1.10;;;;;;;13.53;69.07;95805.69;2082524;28;20193;-63
2023/11/01 07:54:20;;;;;;;16.17;1.58;;;;;;;12.70;71.39;95806.06;2079019;28;20197;-63
2023/11/01 07:55:21;;;;;;;2.45;1.00;;;;;;;13.04;70.92;95807.25;2077473;28;20223;-63
2023/11/01 07:56:23;;;;;;;5.60;1.45;;;;;;;13.36;70.77;95803.38;2078687;28;20288;-63
2023/11/01 07:57:25;;;;;;;4.55;1.15;;;;;;;13.71;69.07;95794.84;2079048;28;20220;-63
2023/11/01 07:58:27;;;;;;;6.72;1.80;;;;;;;13.95;67.87;95802.75;2079355;28;20197;-63
2023/11/01 07:59:29;;;;;;;2.63;0.80;;;;;;;13.97;67.13;95800.84;2077034;28;20334;-63
2023/11/01 08:00:30;;;;;;;5.30;1.00;;;;;;;14.13;67.66;95797.97;2077710;28;20193;-63
2023/11/01 08:01:32;;;;;;;3.42;1.08;;;;;;;14.28;66.69;95790.75;2075381;28;20355;-63
2023/11/01 08:02:34;;;;;;;5.20;1.15;;;;;;;13.95;67.38;95789.63;2079314;28;20467;-63
2023/11/01 08:03:36;;;;;;;3.97;1.20;;;;;;;14.07;67.56;95793.16;2078880;28;20283;-62
2023/11/01 08:04:38;;;;;;;3.60;1.33;;;;;;;14.17;66.99;95790.69;2076592;28;20800;-63
2023/11/01 08:05:40;;;;;;;9.77;1.52;;;;;;;14.37;66.49;95789.25;2077647;28;20201;-63
2023/11/01 08:06:41;;;;;;;4.43;0.90;;;;;;;15.50;64.05;95788.66;2078901;28;20209;-63
2023/11/01 08:07:43;;;;;;;3.85;0.88;;;;;;;15.13;63.38;95786.25;2079900;28;20225;-63
2023/11/01 08:08:44;;;;;;;2.97;1.20;;;;;;;15.14;63.66;95786.13;2077601;28;20562;-63
2023/11/01 08:09:47;;;;;;;2.20;1.10;;;;;;;14.79;65.47;95789.69;2082655;28;20197;-63
2023/11/01 08:10:48;;;;;;;4.38;1.35;;;;;;;15.46;63.88;95789.88;2082309;28;20328;-63
2023/11/01 08:11:50;;;;;;;2.10;0.95;;;;;;;16.33;62.00;95784.72;2079575;28;20196;-63
2023/11/01 08:12:51;;;;;;;2.80;1.00;;;;;;;-145.49;100.00;55703.94;2075636;28;20224;-63
2023/11/01 08:13:52;;;;;;;4.75;1.20;;;;;;;-145.49;100.00;55703.94;2070584;28;20774;-63
2023/11/01 08:14:54;;;;;;;4.15;1.00;;;;;;;-145.49;100.00;55703.94;2073149;28;20457;-63
2023/11/01 08:15:56;;;;;;;3.38;1.05;;;;;;;-145.49;100.00;55703.94;2075687;28;20194;-64
2023/11/01 08:16:57;;;;;;;4.68;1.10;;;;;;;-145.49;100.00;55703.94;2071940;28;20312;-63
2023/11/01 08:18:02;;;;;;;2.67;0.90;;;;;;;-145.49;100.00;55703.94;2069504;28;20247;-63
2023/11/01 08:19:04;;;;;;;3.80;1.00;;;;;;;-145.49;100.00;55703.94;2071832;28;20206;-63
2023/11/01 08:20:06;;;;;;;2.08;1.02;;;;;;;-145.49;100.00;55703.94;2073226;28;20244;-64
2023/11/01 08:21:08;;;;;;;4.00;0.80;;;;;;;-145.49;100.00;55703.94;2074704;28;20217;-63
2023/11/01 08:22:13;;;;;;;4.05;1.00;;;;;;;-145.49;100.00;55703.94;2066577;28;20237;-63
2023/11/01 08:23:14;;;;;;;5.88;1.35;;;;;;;-145.49;100.00;55703.94;2067529;28;20202;-63
2023/11/01 08:24:16;;;;;;;4.10;1.50;;;;;;;-145.49;100.00;55703.94;2077294;28;20197;-63
2023/11/01 08:25:20;;;;;;;3.15;1.27;;;;;;;-145.49;100.00;55703.94;2075886;28;20606;-63
2023/11/01 08:26:23;;;;;;;3.53;0.93;;;;;;;-145.49;100.00;55703.94;2077075;28;20201;-63
2023/11/01 08:27:25;;;;;;;5.50;1.10;;;;;;;-145.49;100.00;55703.94;2076407;28;20244;-63
2023/11/01 08:28:26;;;;;;;4.07;1.23;;;;;;;-145.49;100.00;55703.94;2077832;28;20201;-63
2023/11/01 08:29:28;;;;;;;3.92;1.08;;;;;;;-145.49;100.00;55703.94;2076563;28;20197;-63
2023/11/01 08:30:29;;;;;;;7.25;1.10;;;;;;;-145.49;100.00;55703.94;2072119;28;20220;-62
2023/11/01 08:31:30;;;;;;;3.45;0.90;;;;;;;-145.49;100.00;55703.94;2073612;28;20395;-63
2023/11/01 08:32:32;;;;;;;3.15;0.90;;;;;;;-145.49;100.00;55703.94;2074888;28;20308;-63
2023/11/01 08:33:33;;;;;;;2.53;0.95;;;;;;;-145.49;100.00;55703.94;2075353;28;20208;-63
2023/11/01 08:34:35;;;;;;;2.90;1.10;;;;;;;-145.49;100.00;55703.94;2073382;28;20255;-63
2023/11/01 08:35:38;;;;;;;4.05;1.00;;;;;;;-145.49;100.00;55703.94;2074332;28;20199;-62
2023/11/01 08:36:39;;;;;;;6.22;1.05;;;;;;;-145.49;100.00;55703.94;2074440;28;20201;-63
2023/11/01 08:37:41;;;;;;;2.60;1.10;;;;;;;-145.49;100.00;55703.94;2075817;28;20228;-63
2023/11/01 08:38:42;;;;;;;3.60;1.13;;;;;;;-145.49;100.00;55703.94;2073898;28;20251;-63
2023/11/01 08:39:44;;;;;;;4.20;1.10;;;;;;;-145.49;100.00;55703.94;2070392;28;20256;-62
2023/11/01 08:40:46;;;;;;;5.63;1.20;;;;;;;-145.49;100.00;55703.94;2067765;28;20206;-63
2023/11/01 08:41:47;;;;;;;1.90;0.85;;;;;;;-145.49;100.00;55703.94;2069954;28;20703;-63
2023/11/01 08:42:48;;;;;;;7.80;1.52;;;;;;;-145.49;100.00;55703.94;2071564;28;20751;-63
2023/11/01 08:43:50;;;;;;;1.75;0.80;;;;;;;-145.49;100.00;55703.94;2073167;28;20269;-63
2023/11/01 08:44:51;;;;;;;2.70;1.05;;;;;;;-145.49;100.00;55703.94;2075812;28;20198;-62
2023/11/01 08:45:53;;;;;;;2.25;1.00;;;;;;;-145.49;100.00;55703.94;2076036;28;20196;-63
2023/11/01 08:46:54;;;;;;;3.13;1.08;;;;;;;-145.49;100.00;55703.94;2073275;28;20189;-63
2023/11/01 08:47:56;;;;;;;3.92;0.93;;;;;;;-145.49;100.00;55703.94;2073779;28;20217;-63
2023/11/01 08:48:58;;;;;;;3.03;1.20;;;;;;;-145.49;100.00;55703.94;2068545;28;20203;-62
2023/11/01 08:50:00;;;;;;;4.22;1.13;;;;;;;-145.49;100.00;55703.94;2075236;28;20185;-63
2023/11/01 08:51:02;;;;;;;2.85;0.90;;;;;;;-145.49;100.00;55703.94;2073394;28;20189;-62
2023/11/01 08:52:04;;;;;;;3.30;1.02;;;;;;;-145.49;100.00;55703.94;2074408;28;20197;-62
2023/11/01 08:53:06;;;;;;;2.67;0.90;;;;;;;-145.49;100.00;55703.94;2073710;28;20244;-62
2023/11/01 08:54:09;;;;;;;2.75;1.00;;;;;;;-145.49;100.00;55703.94;2072855;28;20200;-63
2023/11/01 08:55:14;;;;;;;3.67;1.10;;;;;;;-145.49;100.00;55703.94;2082704;28;20261;-62
2023/11/01 08:56:16;;;;;;;7.93;0.95;;;;;;;-145.49;100.00;55703.94;2079323;28;20221;-63
2023/11/01 08:57:22;;;;;;;2.40;0.90;;;;;;;-145.49;100.00;55703.94;2071396;28;20210;-63
2023/11/01 08:58:24;;;;;;;3.97;0.80;;;;;;;-145.49;100.00;55703.94;2073799;28;20227;-63
2023/11/01 08:59:25;;;;;;;5.15;0.98;;;;;;;-145.49;100.00;55703.94;2075198;28;20288;-63
2023/11/01 09:00:27;;;;;;;2.30;0.90;;;;;;;-145.49;100.00;55703.94;2075437;28;20200;-63
2023/11/01 09:01:45;;;;;;;3.70;1.10;;;;;;;-145.49;100.00;55703.94;2069794;28;20279;-62
2023/11/01 09:02:47;;;;;;;4.40;1.10;;;;;;;-145.49;100.00;55703.94;2073151;28;20655;-63
2023/11/01 09:03:49;;;;;;;4.45;0.88;;;;;;;-145.49;100.00;55703.94;2075328;28;20197;-62
2023/11/01 09:04:50;;;;;;;2.65;1.10;;;;;;;-145.49;100.00;55703.94;2074834;28;20252;-62
2023/11/01 09:05:54;;;;;;;1.92;1.00;;;;;;;-145.49;100.00;55703.94;2070181;28;20217;-62
2023/11/01 09:06:55;;;;;;;3.17;0.93;;;;;;;-145.49;100.00;55703.94;2072797;28;20220;-62
2023/11/01 09:07:57;;;;;;;2.35;0.90;;;;;;;-145.49;100.00;55703.94;2072935;28;20628;-62
2023/11/01 09:08:59;;;;;;;3.35;1.25;;;;;;;-145.49;100.00;55703.94;2075560;28;20239;-62
2023/11/01 09:10:00;;;;;;;4.93;1.08;;;;;;;-145.49;100.00;55703.94;2076053;28;20628;-62
2023/11/01 09:11:03;;;;;;;7.75;1.00;;;;;;;-145.49;100.00;55703.94;2069668;28;20194;-62
2023/11/01 09:12:05;;;;;;;3.92;1.20;;;;;;;-145.49;100.00;55703.94;2071378;28;20194;-63
2023/11/01 09:13:07;;;;;;;3.65;1.05;;;;;;;-145.49;100.00;55703.94;2072632;28;20695;-63
2023/11/01 09:14:09;;;;;;;5.97;1.08;;;;;;;-145.49;100.00;55703.94;2072439;28;20226;-62
2023/11/01 09:15:10;;;;;;;4.78;1.15;;;;;;;-145.49;100.00;55703.94;2070589;28;20597;-63
2023/11/01 09:16:11;;;;;;;2.45;0.82;;;;;;;-145.49;100.00;55703.94;2067551;28;20293;-63
2023/11/01 09:17:14;;;;;;;5.40;1.10;;;;;;;-145.49;100.00;55703.94;2066919;28;20194;-62
2023/11/01 09:18:15;;;;;;;3.85;1.00;;;;;;;-145.49;100.00;55703.94;2074805;28;20201;-62
2023/11/01 09:19:17;;;;;;;4.15;1.15;;;;;;;-145.49;100.00;55703.94;2072521;28;20199;-62
2023/11/01 09:20:18;;;;;;;4.50;1.23;;;;;;;-145.49;100.00;55703.94;2074959;28;20193;-62
2023/11/01 09:21:20;;;;;;;2.40;0.90;;;;;;;-145.49;100.00;55703.94;2075116;28;20624;-62
2023/11/01 09:22:21;;;;;;;3.47;1.13;;;;;;;-145.49;100.00;55703.94;2072480;28;20193;-62
2023/11/01 09:23:23;;;;;;;2.50;1.00;;;;;;;-145.49;100.00;55703.94;2073218;28;20200;-62
2023/11/01 09:24:25;;;;;;;4.70;1.05;;;;;;;-145.49;100.00;55703.94;2074455;28;20295;-62
2023/11/01 09:25:27;;;;;;;7.90;1.10;;;;;;;16.33;62.00;95784.72;2074473;28;20225;-63
2023/11/01 09:26:28;;;;;;;8.70;1.00;;;;;;;13.88;67.26;95777.91;2073621;28;20232;-62
2023/11/01 09:27:30;;;;;;;4.13;1.20;;;;;;;14.30;66.79;95767.84;2071302;28;20278;-62
2023/11/01 09:28:31;;;;;;;3.53;0.88;;;;;;;15.25;64.59;95774.81;2073879;28;20599;-62
2023/11/01 09:29:33;;;;;;;2.78;0.95;;;;;;;-145.49;100.00;55703.94;2075389;28;20198;-62
2023/11/01 09:30:35;;;;;;;4.38;1.42;;;;;;;-145.49;100.00;55703.94;2076091;28;20288;-62
2023/11/01 09:31:36;;;;;;;3.13;0.90;;;;;;;-145.49;100.00;55703.94;2077071;28;20200;-62
2023/11/01 09:32:38;;;;;;;6.10;0.93;;;;;;;-145.49;100.00;55703.94;2070991;28;20278;-62
2023/11/01 09:33:40;;;;;;;4.28;1.42;;;;;;;-145.49;100.00;55703.94;2067043;28;20672;-62
2023/11/01 09:34:44;;;;;;;1.70;0.80;;;;;;;-145.49;100.00;55703.94;2065239;28;20224;-62
2023/11/01 09:35:45;;;;;;;3.78;0.90;;;;;;;15.25;64.59;95774.81;2070220;28;20197;-62
2023/11/01 09:36:47;;;;;;;4.93;1.15;;;;;;;14.20;65.42;95766.84;2065212;28;20197;-62
2023/11/01 09:37:48;;;;;;;5.38;1.10;;;;;;;13.78;67.44;95775.09;2065536;28;20626;-62
2023/11/01 09:38:51;;;;;;;3.83;0.95;;;;;;;14.39;66.08;95776.84;2074654;28;20205;-62
2023/11/01 09:39:53;;;;;;;4.40;1.40;;;;;;;14.97;64.48;95762.94;2075508;28;20459;-62
2023/11/01 09:40:56;;;;;;;3.47;1.23;;;;;;;15.06;64.49;95769.28;2072548;28;20766;-62
2023/11/01 09:42:03;;;;;;;3.17;1.10;;;;;;;15.48;63.59;95769.56;2068295;28;20889;-62
2023/11/01 09:43:08;;;;;;;1.95;0.90;;;;;;;15.17;64.19;95775.41;2075551;28;20216;-62
2023/11/01 09:44:15;;;;;;;3.83;0.95;;;;;;;15.09;64.58;95764.63;2074583;28;20197;-63
2023/11/01 09:45:17;;;;;;;2.88;0.82;;;;;;;14.50;65.79;95776.88;2071655;28;20236;-62
2023/11/01 09:46:20;;;;;;;2.85;0.90;;;;;;;14.77;65.27;95767.91;2073826;28;20212;-62
2023/11/01 09:47:23;;;;;;;2.92;0.90;;;;;;;15.22;64.47;95774.22;2071803;28;20200;-62
2023/11/01 09:48:25;;;;;;;2.50;0.90;;;;;;;14.58;65.96;95773.69;2071663;28;20197;-62
2023/11/01 09:49:30;;;;;;;3.03;1.08;;;;;;;15.09;64.59;95769.06;2071522;28;20194;-63
2023/11/01 09:50:35;;;;;;;3.53;1.02;;;;;;;15.51;63.17;95766.69;2070348;28;20284;-62
2023/11/01 09:51:37;;;;;;;2.55;0.90;;;;;;;15.56;63.42;95763.69;2071354;28;20192;-62
2023/11/01 09:52:42;;;;;;;1.95;0.90;;;;;;;16.39;61.97;95764.13;2071144;28;20260;-62
2023/11/01 09:53:43;;;;;;;5.60;1.02;;;;;;;16.98;60.71;95770.69;2070846;28;20227;-62
2023/11/01 09:54:45;;;;;;;6.10;1.13;;;;;;;17.60;58.21;95766.25;2071835;28;20871;-62
2023/11/01 09:55:46;;;;;;;6.47;1.10;;;;;;;17.76;58.28;95767.56;2074578;28;20284;-62
2023/11/01 09:56:48;;;;;;;3.72;1.02;;;;;;;18.26;57.08;95772.03;2075039;28;20202;-62
2023/11/01 09:57:50;;;;;;;3.17;0.93;;;;;;;-145.49;100.00;55703.94;2073397;28;20218;-63
2023/11/01 09:58:52;;;;;;;6.15;1.10;;;;;;;-145.49;100.00;55703.94;2071122;28;20284;-62
2023/11/01 09:59:54;;;;;;;2.70;1.10;;;;;;;-145.49;100.00;55703.94;2070767;28;20225;-62
2023/11/01 10:00:58;;;;;;;2.95;0.93;;;;;;;17.11;59.31;95781.84;2070717;28;20194;-62
2023/11/01 10:02:00;;;;;;;2.55;0.88;;;;;;;16.93;59.21;95767.59;2073438;28;20657;-62
2023/11/01 10:03:02;;;;;;;3.70;1.35;;;;;;;16.54;59.95;95772.56;2073820;28;20214;-62
2023/11/01 10:04:05;;;;;;;7.22;2.10;;;;;;;15.82;61.51;95765.13;2070983;28;20197;-61
2023/11/01 10:05:06;;;;;;;9.90;4.28;;;;;;;15.76;62.25;95762.94;2073225;28;20185;-62
2023/11/01 10:06:08;;;;;;;14.13;5.43;;;;;;;15.64;61.86;95763.91;2074205;28;20610;-62
2023/11/01 10:07:10;;;;;;;9.10;2.55;;;;;;;15.47;62.64;95758.19;2069122;28;20217;-62
2023/11/01 10:08:12;;;;;;;4.10;1.00;;;;;;;15.55;62.75;95757.56;2069597;28;20195;-61
2023/11/01 10:09:13;;;;;;;3.53;1.10;;;;;;;15.64;62.03;95756.88;2076939;28;20236;-61
2023/11/01 10:10:16;;;;;;;2.88;1.35;;;;;;;15.74;61.93;95746.44;2071905;28;20292;-62
2023/11/01 10:11:19;;;;;;;5.90;1.20;;;;;;;15.83;62.12;95747.53;2070877;28;20198;-61
2023/11/01 10:12:20;;;;;;;4.88;0.80;;;;;;;16.03;62.10;95748.56;2070145;28;20208;-61
2023/11/01 10:13:21;;;;;;;4.53;0.90;;;;;;;15.82;61.92;95748.47;2075516;28;20197;-61
2023/11/01 10:14:31;;;;;;;4.20;0.90;;;;;;;15.87;62.42;95741.06;2074255;28;20335;-62
2023/11/01 10:15:32;;;;;;;3.17;1.05;;;;;;;15.87;63.28;95742.84;2073772;28;20839;-62
2023/11/01 10:16:34;;;;;;;3.85;1.00;;;;;;;15.34;63.58;95739.06;2074704;28;20614;-61
2023/11/01 10:17:35;;;;;;;6.72;1.20;;;;;;;14.74;65.33;95743.66;2072024;28;20308;-62
2023/11/01 10:18:37;;;;;;;5.90;1.30;;;;;;;14.37;66.79;95748.06;2073824;28;20201;-62
2023/11/01 10:19:41;;;;;;;2.35;0.98;;;;;;;14.35;66.48;95749.16;2070336;28;20326;-61
2023/11/01 10:20:44;;;;;;;7.10;1.00;;;;;;;14.35;66.91;95744.72;2067501;28;20198;-61
2023/11/01 10:21:46;;;;;;;5.85;1.30;;;;;;;14.10;67.40;95744.84;2070738;28;20225;-61
2023/11/01 10:22:48;;;;;;;9.23;1.25;;;;;;;13.81;68.17;95724.19;2074528;28;20279;-61
2023/11/01 10:23:51;;;;;;;3.25;1.02;;;;;;;13.86;67.86;95748.31;2075953;28;20202;-62
2023/11/01 10:24:56;;;;;;;8.52;1.15;;;;;;;14.12;67.39;95737.69;2075963;28;20250;-61
2023/11/01 10:25:58;;;;;;;2.53;1.17;;;;;;;14.40;67.17;95746.16;2073209;28;20217;-61
2023/11/01 10:26:59;;;;;;;3.08;0.80;;;;;;;14.75;66.26;95748.78;2073453;28;20292;-61
2023/11/01 10:28:01;;;;;;;4.78;1.10;;;;;;;14.89;65.69;95741.66;2074262;28;20244;-61
2023/11/01 10:29:03;;;;;;;5.00;1.42;;;;;;;15.21;64.89;95738.34;2069855;28;20202;-61
2023/11/01 10:30:05;;;;;;;6.45;1.30;;;;;;;15.23;64.92;95733.81;2072414;28;20190;-62
2023/11/01 10:31:07;;;;;;;1.88;0.90;;;;;;;15.87;63.82;95732.31;2072465;28;20206;-62
2023/11/01 10:32:10;;;;;;;8.10;1.08;;;;;;;16.42;61.99;95729.63;2073027;28;20193;-61
2023/11/01 10:33:15;;;;;;;2.63;0.98;;;;;;;16.72;60.60;95717.47;2076849;28;20201;-61
2023/11/01 10:34:18;;;;;;;3.45;0.80;;;;;;;16.83;60.06;95729.78;2074699;28;20193;-62
2023/11/01 10:35:20;;;;;;;2.42;0.80;;;;;;;16.49;61.09;95726.34;2072513;28;20575;-61
2023/11/01 10:36:21;;;;;;;2.50;1.10;;;;;;;16.41;61.55;95717.41;2070008;28;20252;-61
2023/11/01 10:37:27;;;;;;;4.10;1.25;;;;;;;16.50;62.06;95714.00;2068266;28;20266;-61
2023/11/01 10:38:31;;;;;;;3.28;1.00;;;;;;;16.28;61.14;95713.16;2071465;28;20194;-61
2023/11/01 10:39:37;;;;;;;2.40;0.80;;;;;;;15.85;62.13;95714.03;2071898;28;20194;-61
2023/11/01 10:40:38;;;;;;;6.03;1.00;;;;;;;15.83;62.90;95711.53;2071009;28;20201;-62
2023/11/01 10:41:40;;;;;;;2.53;0.90;;;;;;;16.37;61.58;95705.47;2075131;28;20202;-62
2023/11/01 10:42:42;;;;;;;3.97;1.10;;;;;;;16.52;61.44;95696.28;2074674;28;20247;-62
2023/11/01 10:43:43;;;;;;;2.70;0.90;;;;;;;16.75;61.01;95702.25;2074372;28;20818;-62
2023/11/01 10:44:45;;;;;;;7.15;0.95;;;;;;;16.88;60.55;95706.50;2072263;28;20201;-61
2023/11/01 10:45:49;;;;;;;3.38;0.93;;;;;;;16.46;60.43;95704.69;2074802;28;20836;-62
2023/11/01 10:46:50;;;;;;;4.82;0.90;;;;;;;16.16;61.68;95703.63;2071492;28;20248;-62
2023/11/01 10:47:53;;;;;;;3.63;0.90;;;;;;;15.74;62.77;95704.31;2073482;28;20844;-62
2023/11/01 10:48:54;;;;;;;6.32;1.05;;;;;;;15.76;63.24;95704.22;2074143;28;20194;-61
2023/11/01 10:49:56;;;;;;;3.25;0.90;;;;;;;15.27;64.96;95701.06;2075858;28;20286;-61
2023/11/01 10:50:58;;;;;;;3.40;0.88;;;;;;;15.88;63.31;95699.78;2070791;28;20194;-62
2023/11/01 10:52:01;;;;;;;3.60;0.77;;;;;;;16.04;62.99;95696.75;2071945;28;20259;-62
2023/11/01 10:53:03;;;;;;;3.63;0.80;;;;;;;16.04;62.15;95696.75;2071386;28;20274;-62
2023/11/01 10:54:05;;;;;;;1.50;0.80;;;;;;;16.06;61.24;95695.66;2072998;28;20236;-62
2023/11/01 10:55:10;;;;;;;5.05;1.25;;;;;;;16.26;60.83;95699.25;2070784;28;20194;-62
2023/11/01 10:56:11;;;;;;;4.50;1.10;;;;;;;16.26;61.12;95694.00;2072103;28;20513;-61
2023/11/01 10:57:13;;;;;;;8.43;1.30;;;;;;;16.07;61.87;95689.41;2070188;28;20193;-62
2023/11/01 10:58:15;;;;;;;5.40;0.80;;;;;;;15.72;62.15;95686.97;2072836;28;20247;-62
2023/11/01 10:59:43;;;;;;;3.67;1.00;;;;;;;15.74;62.72;95685.91;2073693;28;20238;-62
2023/11/01 11:00:48;;;;;;;3.60;0.82;;;;;;;15.94;62.51;95684.31;2073467;28;20248;-62
2023/11/01 11:02:16;;;;;;;5.85;0.90;;;;;;;16.60;60.33;95680.66;2073300;28;20255;-62
2023/11/01 11:03:28;;;;;;;2.63;0.95;;;;;;;16.81;59.79;95678.00;2062911;28;20221;-62
2023/11/01 11:04:36;;;;;;;3.67;1.10;;;;;;;16.85;59.60;95675.94;2067655;28;20225;-62
2023/11/01 11:05:41;;;;;;;2.67;0.90;;;;;;;17.07;59.27;95672.31;2069242;28;20204;-61
2023/11/01 11:06:54;;;;;;;2.63;1.17;;;;;;;17.05;58.55;95670.78;2076015;28;20217;-65
2023/11/01 11:07:56;;;;;;;3.95;1.05;;;;;;;16.92;59.21;95677.09;2073276;28;20218;-65
2023/11/01 11:09:21;;;;;;;2.20;0.98;;;;;;;17.37;58.73;95670.63;2074637;28;20221;-65
2023/11/01 11:10:25;;;;;;;2.30;0.90;;;;;;;17.67;57.62;95666.25;2072263;28;20185;-65
2023/11/01 11:11:26;;;;;;;8.20;1.35;;;;;;;17.52;57.79;95671.09;2071370;28;20544;-65
2023/11/01 11:12:28;;;;;;;2.08;0.82;;;;;;;17.18;58.47;95663.50;2068714;28;20226;-62
2023/11/01 11:13:29;;;;;;;3.67;0.90;;;;;;;17.44;58.20;95660.38;2068592;28;20224;-63
2023/11/01 11:14:47;;;;;;;3.35;1.05;;;;;;;16.99;58.53;95658.97;2072903;28;20191;-63
2023/11/01 11:15:50;;;;;;;3.88;0.82;;;;;;;17.17;58.61;95653.06;2072419;28;20292;-62
2023/11/01 11:17:08;;;;;;;8.38;1.00;;;;;;;17.12;58.47;95648.19;2070516;28;20597;-63
2023/11/01 11:18:10;;;;;;;2.67;0.93;;;;;;;16.74;58.85;95657.56;2073060;28;20267;-62
2023/11/01 11:19:11;;;;;;;3.08;1.10;;;;;;;16.72;58.44;95652.44;2073184;28;20212;-62
2023/11/01 11:20:16;;;;;;;4.07;0.90;;;;;;;17.05;57.82;95634.72;2072216;28;20189;-62
2023/11/01 11:21:47;;;;;;;4.57;0.85;;;;;;;17.50;57.09;95651.09;2074296;28;20193;-63
2023/11/01 11:23:07;;;;;;;1.40;0.68;;;;;;;17.25;57.53;95650.59;2074140;28;20219;-63
2023/11/01 11:24:36;;;;;;;5.28;0.90;;;;;;;17.38;57.04;95643.28;2080318;28;20190;-63
2023/11/01 11:25:42;;;;;;;3.08;1.13;;;;;;;16.99;57.71;95645.78;2073898;28;20194;-62
2023/11/01 11:26:44;;;;;;;3.53;1.00;;;;;;;17.68;56.77;95640.69;2072397;28;20217;-63
2023/11/01 11:27:47;;;;;;;5.22;0.90;;;;;;;17.56;56.21;95639.97;2070761;28;20229;-63
2023/11/01 11:28:48;;;;;;;2.30;0.80;;;;;;;16.85;57.31;95641.69;2067620;28;20186;-63
2023/11/01 11:29:50;;;;;;;3.78;0.70;;;;;;;16.48;59.01;95644.78;2067708;28;20190;-63
2023/11/01 11:31:07;;;;;;;3.80;0.80;;;;;;;16.04;59.22;95634.38;2069888;28;20202;-63
2023/11/01 11:32:21;;;;;;;3.60;1.10;;;;;;;15.75;59.55;95642.84;2072297;28;20197;-64
2023/11/01 11:33:22;;;;;;;2.50;0.70;;;;;;;15.80;59.38;95635.41;2074479;28;20236;-65
2023/11/01 11:34:25;;;;;;;8.13;1.00;;;;;;;16.25;59.52;95629.13;2072512;28;20239;-65
2023/11/01 11:35:27;;;;;;;3.58;0.80;;;;;;;16.19;58.57;95632.28;2072535;28;20262;-65
2023/11/01 11:36:29;;;;;;;2.75;1.02;;;;;;;16.35;58.94;95631.81;2073679;28;20190;-65
2023/11/01 11:37:30;;;;;;;2.88;0.77;;;;;;;16.56;58.85;95626.53;2072515;28;20225;-65
2023/11/01 11:38:34;;;;;;;2.75;0.93;;;;;;;16.93;58.48;95625.22;2074497;28;20224;-65
2023/11/01 11:40:06;;;;;;;3.90;0.80;;;;;;;17.48;57.38;95616.91;2073633;28;20254;-65
2023/11/01 11:41:15;;;;;;;2.55;0.75;;;;;;;17.43;56.84;95616.47;2072297;28;20204;-64
2023/11/01 11:42:41;;;;;;;2.70;0.90;;;;;;;18.08;55.83;95622.13;2071500;28;20189;-64
2023/11/01 11:44:05;;;;;;;6.10;0.98;;;;;;;17.89;55.23;95622.06;2069284;28;20668;-65
2023/11/01 11:45:08;;;;;;;1.63;0.70;;;;;;;17.64;54.93;95613.72;2071395;28;20194;-65
2023/11/01 11:46:44;;;;;;;2.83;0.82;;;;;;;18.33;55.01;95609.28;2071508;28;20656;-63
2023/11/01 11:47:45;;;;;;;3.15;1.00;;;;;;;17.93;55.59;95613.78;2063311;28;20252;-63
2023/11/01 11:48:51;;;;;;;2.45;1.00;;;;;;;17.90;55.82;95614.03;2072740;28;20227;-63
2023/11/01 11:49:52;;;;;;;4.25;0.90;;;;;;;17.21;56.83;95614.91;2074656;28;20224;-63
2023/11/01 11:51:04;;;;;;;4.32;0.70;;;;;;;17.29;56.89;95617.69;2065296;28;20321;-62
2023/11/01 11:52:11;;;;;;;2.58;0.70;;;;;;;16.95;57.57;95618.84;2067472;28;20201;-62
2023/11/01 11:53:14;;;;;;;2.10;0.75;;;;;;;16.54;57.89;95614.47;2073094;28;20197;-63
2023/11/01 11:54:16;;;;;;;3.60;0.98;;;;;;;16.45;59.33;95606.34;2070992;28;20190;-63